sensor_id;sensor_type;location;lat;lon;timestamp;pressure;altitude;pressure_sealevel;temperature;humidity
76990;BME280;65924;47.250;11.332;2023-05-16T00:00:05;94491.86;;;13.07;72.13
76990;BME280;65924;47.250;11.332;2023-05-16T00:00:46;94489.70;;;13.06;71.50
76990;BME280;65924;47.250;11.332;2023-05-16T00:01:26;94489.25;;;13.05;70.86
76990;BME280;65924;47.250;11.332;2023-05-16T00:02:10;94488.27;;;13.04;70.78
76990;BME280;65924;47.250;11.332;2023-05-16T00:02:49;94480.92;;;13.02;70.10
76990;BME280;65924;47.250;11.332;2023-05-16T00:03:28;94485.36;;;13.01;70.09
76990;BME280;65924;47.250;11.332;2023-05-16T00:04:07;94489.02;;;13.00;70.38
76990;BME280;65924;47.250;11.332;2023-05-16T00:04:46;94486.99;;;12.99;70.25
76990;BME280;65924;47.250;11.332;2023-05-16T00:05:26;94485.73;;;12.97;70.42
76990;BME280;65924;47.250;11.332;2023-05-16T00:06:04;94487.27;;;12.97;70.95
76990;BME280;65924;47.250;11.332;2023-05-16T00:06:43;94488.88;;;12.99;71.18
76990;BME280;65924;47.250;11.332;2023-05-16T00:07:21;94488.48;;;13.00;70.99
76990;BME280;65924;47.250;11.332;2023-05-16T00:08:00;94485.02;;;12.98;70.92
76990;BME280;65924;47.250;11.332;2023-05-16T00:08:38;94488.25;;;13.01;70.66
76990;BME280;65924;47.250;11.332;2023-05-16T00:09:17;94487.23;;;13.01;70.90
76990;BME280;65924;47.250;11.332;2023-05-16T00:09:56;94488.36;;;13.01;70.80
76990;BME280;65924;47.250;11.332;2023-05-16T00:10:35;94487.02;;;13.01;70.96
76990;BME280;65924;47.250;11.332;2023-05-16T00:11:16;94485.10;;;13.02;71.00
76990;BME280;65924;47.250;11.332;2023-05-16T00:11:55;94488.80;;;13.02;71.12
76990;BME280;65924;47.250;11.332;2023-05-16T00:12:34;94484.21;;;13.02;71.22
76990;BME280;65924;47.250;11.332;2023-05-16T00:13:14;94482.50;;;13.02;71.87
76990;BME280;65924;47.250;11.332;2023-05-16T00:13:53;94485.77;;;13.02;71.16
76990;BME280;65924;47.250;11.332;2023-05-16T00:14:31;94484.06;;;13.02;71.03
76990;BME280;65924;47.250;11.332;2023-05-16T00:15:10;94482.48;;;13.00;70.98
76990;BME280;65924;47.250;11.332;2023-05-16T00:15:51;94484.71;;;13.00;70.83
76990;BME280;65924;47.250;11.332;2023-05-16T00:16:30;94482.41;;;12.99;70.52
76990;BME280;65924;47.250;11.332;2023-05-16T00:17:10;94485.41;;;12.97;70.34
76990;BME280;65924;47.250;11.332;2023-05-16T00:17:49;94482.27;;;12.96;70.55
76990;BME280;65924;47.250;11.332;2023-05-16T00:18:27;94478.70;;;12.94;70.51
76990;BME280;65924;47.250;11.332;2023-05-16T00:19:06;94479.39;;;12.93;70.62
76990;BME280;65924;47.250;11.332;2023-05-16T00:19:45;94480.41;;;12.93;71.07
76990;BME280;65924;47.250;11.332;2023-05-16T00:20:27;94480.42;;;12.93;71.52
76990;BME280;65924;47.250;11.332;2023-05-16T00:21:06;94476.54;;;12.93;71.10
76990;BME280;65924;47.250;11.332;2023-05-16T00:21:45;94472.90;;;12.92;71.17
76990;BME280;65924;47.250;11.332;2023-05-16T00:22:30;94470.83;;;12.92;70.81
76990;BME280;65924;47.250;11.332;2023-05-16T00:23:09;94473.10;;;12.91;70.68
76990;BME280;65924;47.250;11.332;2023-05-16T00:23:49;94470.39;;;12.91;70.57
76990;BME280;65924;47.250;11.332;2023-05-16T00:24:29;94471.29;;;12.90;70.54
76990;BME280;65924;47.250;11.332;2023-05-16T00:25:08;94476.77;;;12.90;70.57
76990;BME280;65924;47.250;11.332;2023-05-16T00:25:47;94476.84;;;12.91;70.62
76990;BME280;65924;47.250;11.332;2023-05-16T00:26:26;94475.56;;;12.92;71.68
76990;BME280;65924;47.250;11.332;2023-05-16T00:27:05;94469.55;;;12.91;71.47
76990;BME280;65924;47.250;11.332;2023-05-16T00:27:44;94472.92;;;12.93;71.69
76990;BME280;65924;47.250;11.332;2023-05-16T00:28:23;94472.90;;;12.93;71.62
76990;BME280;65924;47.250;11.332;2023-05-16T00:29:01;94469.09;;;12.94;71.71
76990;BME280;65924;47.250;11.332;2023-05-16T00:29:42;94467.17;;;12.95;71.40
76990;BME280;65924;47.250;11.332;2023-05-16T00:30:21;94466.90;;;12.94;70.57
76990;BME280;65924;47.250;11.332;2023-05-16T00:31:00;94466.21;;;12.92;70.51
76990;BME280;65924;47.250;11.332;2023-05-16T00:31:38;94468.42;;;12.90;70.41
76990;BME280;65924;47.250;11.332;2023-05-16T00:32:17;94463.84;;;12.88;70.56
76990;BME280;65924;47.250;11.332;2023-05-16T00:32:56;94462.95;;;12.86;71.20
76990;BME280;65924;47.250;11.332;2023-05-16T00:33:35;94461.86;;;12.87;71.98
76990;BME280;65924;47.250;11.332;2023-05-16T00:34:14;94462.46;;;12.88;71.83
76990;BME280;65924;47.250;11.332;2023-05-16T00:34:52;94460.92;;;12.88;72.04
76990;BME280;65924;47.250;11.332;2023-05-16T00:35:32;94461.20;;;12.88;72.28
76990;BME280;65924;47.250;11.332;2023-05-16T00:36:11;94460.75;;;12.90;72.45
76990;BME280;65924;47.250;11.332;2023-05-16T00:36:50;94455.66;;;12.87;72.49
76990;BME280;65924;47.250;11.332;2023-05-16T00:37:29;94460.73;;;12.92;72.59
76990;BME280;65924;47.250;11.332;2023-05-16T00:38:07;94458.23;;;12.93;72.45
76990;BME280;65924;47.250;11.332;2023-05-16T00:38:46;94457.98;;;12.94;72.76
76990;BME280;65924;47.250;11.332;2023-05-16T00:39:25;94458.92;;;12.95;72.47
76990;BME280;65924;47.250;11.332;2023-05-16T00:40:04;94456.95;;;12.97;72.63
76990;BME280;65924;47.250;11.332;2023-05-16T00:40:43;94456.48;;;12.99;73.11
76990;BME280;65924;47.250;11.332;2023-05-16T00:41:21;94456.91;;;13.00;73.45
76990;BME280;65924;47.250;11.332;2023-05-16T00:42:01;94454.23;;;13.02;73.03
76990;BME280;65924;47.250;11.332;2023-05-16T00:42:39;94454.31;;;13.03;72.54
76990;BME280;65924;47.250;11.332;2023-05-16T00:43:18;94452.60;;;13.03;72.80
76990;BME280;65924;47.250;11.332;2023-05-16T00:43:56;94454.01;;;13.04;72.68
76990;BME280;65924;47.250;11.332;2023-05-16T00:44:35;94454.10;;;13.05;72.40
76990;BME280;65924;47.250;11.332;2023-05-16T00:45:14;94457.42;;;13.06;72.31
76990;BME280;65924;47.250;11.332;2023-05-16T00:45:52;94455.19;;;13.07;72.30
76990;BME280;65924;47.250;11.332;2023-05-16T00:46:31;94452.77;;;13.07;72.24
76990;BME280;65924;47.250;11.332;2023-05-16T00:47:10;94457.19;;;13.07;72.01
76990;BME280;65924;47.250;11.332;2023-05-16T00:47:52;94454.85;;;13.09;71.95
76990;BME280;65924;47.250;11.332;2023-05-16T00:48:32;94455.11;;;13.10;72.35
76990;BME280;65924;47.250;11.332;2023-05-16T00:49:12;94457.59;;;13.11;72.34
76990;BME280;65924;47.250;11.332;2023-05-16T00:49:51;94455.64;;;13.12;72.00
76990;BME280;65924;47.250;11.332;2023-05-16T00:50:32;94456.36;;;13.11;72.12
76990;BME280;65924;47.250;11.332;2023-05-16T00:51:11;94457.52;;;13.14;72.91
76990;BME280;65924;47.250;11.332;2023-05-16T00:51:49;94458.05;;;13.16;72.64
76990;BME280;65924;47.250;11.332;2023-05-16T00:52:30;94461.17;;;13.17;72.12
76990;BME280;65924;47.250;11.332;2023-05-16T00:53:11;94457.77;;;13.19;73.05
76990;BME280;65924;47.250;11.332;2023-05-16T00:53:50;94459.11;;;13.19;73.17
76990;BME280;65924;47.250;11.332;2023-05-16T00:54:30;94457.48;;;13.20;72.78
76990;BME280;65924;47.250;11.332;2023-05-16T00:55:09;94459.24;;;13.22;72.66
76990;BME280;65924;47.250;11.332;2023-05-16T00:55:48;94461.91;;;13.23;72.31
76990;BME280;65924;47.250;11.332;2023-05-16T00:56:26;94460.73;;;13.23;72.23
76990;BME280;65924;47.250;11.332;2023-05-16T00:57:05;94461.69;;;13.23;72.43
76990;BME280;65924;47.250;11.332;2023-05-16T00:57:45;94460.95;;;13.24;73.10
76990;BME280;65924;47.250;11.332;2023-05-16T00:58:24;94461.05;;;13.25;73.22
76990;BME280;65924;47.250;11.332;2023-05-16T00:59:03;94461.80;;;13.26;73.19
76990;BME280;65924;47.250;11.332;2023-05-16T00:59:43;94459.61;;;13.28;72.28
76990;BME280;65924;47.250;11.332;2023-05-16T01:00:24;94466.02;;;13.29;72.51
76990;BME280;65924;47.250;11.332;2023-05-16T01:01:04;94461.55;;;13.29;71.95
76990;BME280;65924;47.250;11.332;2023-05-16T01:01:45;94462.33;;;13.30;72.45
76990;BME280;65924;47.250;11.332;2023-05-16T01:02:26;94460.02;;;13.29;72.15
76990;BME280;65924;47.250;11.332;2023-05-16T01:03:07;94463.48;;;13.31;72.02
76990;BME280;65924;47.250;11.332;2023-05-16T01:03:46;94460.28;;;13.30;72.15
76990;BME280;65924;47.250;11.332;2023-05-16T01:04:28;94460.77;;;13.30;72.07
76990;BME280;65924;47.250;11.332;2023-05-16T01:05:06;94460.77;;;13.30;71.94
76990;BME280;65924;47.250;11.332;2023-05-16T01:05:48;94460.74;;;13.31;71.95
76990;BME280;65924;47.250;11.332;2023-05-16T01:06:27;94454.11;;;13.31;72.06
76990;BME280;65924;47.250;11.332;2023-05-16T01:07:05;94456.30;;;13.31;71.90
76990;BME280;65924;47.250;11.332;2023-05-16T01:07:46;94451.98;;;13.32;72.06
76990;BME280;65924;47.250;11.332;2023-05-16T01:08:24;94449.55;;;13.32;72.78
76990;BME280;65924;47.250;11.332;2023-05-16T01:09:04;94453.77;;;13.33;73.14
76990;BME280;65924;47.250;11.332;2023-05-16T01:09:43;94452.31;;;13.35;72.39
76990;BME280;65924;47.250;11.332;2023-05-16T01:10:22;94453.40;;;13.36;71.70
76990;BME280;65924;47.250;11.332;2023-05-16T01:11:30;94451.11;;;13.37;72.01
76990;BME280;65924;47.250;11.332;2023-05-16T01:12:40;94453.05;;;13.38;72.13
76990;BME280;65924;47.250;11.332;2023-05-16T01:13:32;94451.51;;;13.38;72.05
76990;BME280;65924;47.250;11.332;2023-05-16T01:14:33;94453.58;;;13.38;73.01
76990;BME280;65924;47.250;11.332;2023-05-16T01:15:30;94453.89;;;13.39;73.30
76990;BME280;65924;47.250;11.332;2023-05-16T01:16:25;94453.55;;;13.38;72.49
76990;BME280;65924;47.250;11.332;2023-05-16T01:20:48;94449.63;;;13.34;70.75
76990;BME280;65924;47.250;11.332;2023-05-16T01:21:52;94446.67;;;13.32;70.28
76990;BME280;65924;47.250;11.332;2023-05-16T01:26:26;94447.39;;;13.25;70.80
76990;BME280;65924;47.250;11.332;2023-05-16T01:27:06;94447.46;;;13.24;71.30
76990;BME280;65924;47.250;11.332;2023-05-16T01:27:46;94449.27;;;13.23;71.61
76990;BME280;65924;47.250;11.332;2023-05-16T01:28:26;94449.33;;;13.22;71.15
76990;BME280;65924;47.250;11.332;2023-05-16T01:29:06;94449.06;;;13.21;71.50
76990;BME280;65924;47.250;11.332;2023-05-16T01:29:47;94448.61;;;13.21;71.61
76990;BME280;65924;47.250;11.332;2023-05-16T01:30:25;94446.09;;;13.18;71.07
76990;BME280;65924;47.250;11.332;2023-05-16T01:31:04;94448.69;;;13.20;71.11
76990;BME280;65924;47.250;11.332;2023-05-16T01:31:44;94447.05;;;13.19;71.31
76990;BME280;65924;47.250;11.332;2023-05-16T01:32:24;94445.91;;;13.18;70.92
76990;BME280;65924;47.250;11.332;2023-05-16T01:33:02;94445.81;;;13.17;71.23
76990;BME280;65924;47.250;11.332;2023-05-16T01:33:42;94448.08;;;13.17;71.02
76990;BME280;65924;47.250;11.332;2023-05-16T01:34:20;94447.60;;;13.16;71.33
76990;BME280;65924;47.250;11.332;2023-05-16T01:34:59;94446.95;;;13.16;71.80
76990;BME280;65924;47.250;11.332;2023-05-16T01:35:54;94448.31;;;13.15;71.89
76990;BME280;65924;47.250;11.332;2023-05-16T01:37:02;94446.83;;;13.13;70.74
76990;BME280;65924;47.250;11.332;2023-05-16T01:38:03;94449.06;;;13.12;71.23
76990;BME280;65924;47.250;11.332;2023-05-16T01:39:40;94446.80;;;13.09;71.01
76990;BME280;65924;47.250;11.332;2023-05-16T01:42:14;94444.61;;;13.04;71.84
76990;BME280;65924;47.250;11.332;2023-05-16T01:42:53;94443.98;;;13.01;72.36
76990;BME280;65924;47.250;11.332;2023-05-16T01:43:37;94447.50;;;13.02;72.06
76990;BME280;65924;47.250;11.332;2023-05-16T01:44:27;94445.52;;;13.01;71.68
76990;BME280;65924;47.250;11.332;2023-05-16T01:45:13;94441.45;;;13.01;71.35
76990;BME280;65924;47.250;11.332;2023-05-16T01:46:01;94439.98;;;13.01;71.66
76990;BME280;65924;47.250;11.332;2023-05-16T01:46:44;94441.48;;;13.01;72.63
76990;BME280;65924;47.250;11.332;2023-05-16T01:47:24;94435.77;;;13.00;72.34
76990;BME280;65924;47.250;11.332;2023-05-16T01:48:13;94437.33;;;13.00;72.60
76990;BME280;65924;47.250;11.332;2023-05-16T01:49:10;94441.81;;;12.99;73.06
76990;BME280;65924;47.250;11.332;2023-05-16T01:50:12;94437.90;;;12.99;72.97
76990;BME280;65924;47.250;11.332;2023-05-16T01:50:55;94440.65;;;12.98;73.01
76990;BME280;65924;47.250;11.332;2023-05-16T01:51:36;94440.64;;;12.99;72.96
76990;BME280;65924;47.250;11.332;2023-05-16T01:52:56;94439.53;;;12.97;73.39
76990;BME280;65924;47.250;11.332;2023-05-16T01:53:38;94444.40;;;12.98;73.20
76990;BME280;65924;47.250;11.332;2023-05-16T01:54:19;94443.42;;;12.97;73.31
76990;BME280;65924;47.250;11.332;2023-05-16T01:55:03;94442.89;;;12.98;72.46
76990;BME280;65924;47.250;11.332;2023-05-16T01:55:47;94441.89;;;12.97;72.14
76990;BME280;65924;47.250;11.332;2023-05-16T01:56:30;94441.48;;;12.96;71.65
76990;BME280;65924;47.250;11.332;2023-05-16T01:57:10;94437.84;;;12.95;72.26
76990;BME280;65924;47.250;11.332;2023-05-16T01:57:51;94438.73;;;12.94;72.10
76990;BME280;65924;47.250;11.332;2023-05-16T01:58:32;94435.68;;;12.94;72.41
76990;BME280;65924;47.250;11.332;2023-05-16T01:59:11;94434.52;;;12.93;73.34
76990;BME280;65924;47.250;11.332;2023-05-16T01:59:50;94436.04;;;12.94;73.62
76990;BME280;65924;47.250;11.332;2023-05-16T02:00:30;94433.27;;;12.94;74.01
76990;BME280;65924;47.250;11.332;2023-05-16T02:01:12;94431.87;;;12.95;73.20
76990;BME280;65924;47.250;11.332;2023-05-16T02:01:56;94432.33;;;12.95;72.78
76990;BME280;65924;47.250;11.332;2023-05-16T02:02:35;94432.85;;;12.95;73.03
76990;BME280;65924;47.250;11.332;2023-05-16T02:03:13;94431.52;;;12.95;73.27
76990;BME280;65924;47.250;11.332;2023-05-16T02:03:52;94431.52;;;12.95;72.61
76990;BME280;65924;47.250;11.332;2023-05-16T02:04:30;94429.14;;;12.92;73.07
76990;BME280;65924;47.250;11.332;2023-05-16T02:05:09;94431.98;;;12.95;72.48
76990;BME280;65924;47.250;11.332;2023-05-16T02:05:48;94430.50;;;12.95;72.83
76990;BME280;65924;47.250;11.332;2023-05-16T02:06:26;94429.66;;;12.95;72.84
76990;BME280;65924;47.250;11.332;2023-05-16T02:07:06;94423.31;;;12.93;73.18
76990;BME280;65924;47.250;11.332;2023-05-16T02:07:45;94427.42;;;12.95;73.61
76990;BME280;65924;47.250;11.332;2023-05-16T02:08:24;94430.45;;;12.95;73.73
76990;BME280;65924;47.250;11.332;2023-05-16T02:09:03;94430.58;;;12.96;73.53
76990;BME280;65924;47.250;11.332;2023-05-16T02:09:42;94431.70;;;12.97;73.41
76990;BME280;65924;47.250;11.332;2023-05-16T02:10:20;94432.54;;;12.97;73.46
76990;BME280;65924;47.250;11.332;2023-05-16T02:10:59;94433.84;;;12.98;72.83
76990;BME280;65924;47.250;11.332;2023-05-16T02:11:38;94434.50;;;12.98;72.46
76990;BME280;65924;47.250;11.332;2023-05-16T02:12:16;94432.38;;;12.97;72.25
76990;BME280;65924;47.250;11.332;2023-05-16T02:12:55;94435.71;;;12.98;71.98
76990;BME280;65924;47.250;11.332;2023-05-16T02:13:34;94431.91;;;12.97;72.02
76990;BME280;65924;47.250;11.332;2023-05-16T02:14:15;94434.10;;;12.99;71.94
76990;BME280;65924;47.250;11.332;2023-05-16T02:14:53;94433.39;;;13.00;72.16
76990;BME280;65924;47.250;11.332;2023-05-16T02:15:32;94432.83;;;13.00;71.85
76990;BME280;65924;47.250;11.332;2023-05-16T02:16:10;94435.90;;;13.00;71.85
76990;BME280;65924;47.250;11.332;2023-05-16T02:16:49;94429.57;;;12.98;72.03
76990;BME280;65924;47.250;11.332;2023-05-16T02:17:28;94435.80;;;13.01;72.03
76990;BME280;65924;47.250;11.332;2023-05-16T02:18:07;94432.05;;;13.01;72.33
76990;BME280;65924;47.250;11.332;2023-05-16T02:18:46;94432.23;;;13.02;72.57
76990;BME280;65924;47.250;11.332;2023-05-16T02:19:25;94430.89;;;13.01;72.45
76990;BME280;65924;47.250;11.332;2023-05-16T02:20:05;94433.31;;;13.01;72.58
76990;BME280;65924;47.250;11.332;2023-05-16T02:20:45;94428.85;;;12.99;72.58
76990;BME280;65924;47.250;11.332;2023-05-16T02:21:23;94428.42;;;13.00;72.80
76990;BME280;65924;47.250;11.332;2023-05-16T02:22:02;94425.49;;;13.00;73.37
76990;BME280;65924;47.250;11.332;2023-05-16T02:22:41;94426.20;;;13.00;73.17
76990;BME280;65924;47.250;11.332;2023-05-16T02:23:25;94424.69;;;13.00;73.13
76990;BME280;65924;47.250;11.332;2023-05-16T02:24:05;94428.94;;;13.00;73.11
76990;BME280;65924;47.250;11.332;2023-05-16T02:24:43;94425.23;;;12.99;72.90
76990;BME280;65924;47.250;11.332;2023-05-16T02:25:23;94423.27;;;12.98;72.73
76990;BME280;65924;47.250;11.332;2023-05-16T02:26:02;94427.30;;;12.99;72.48
76990;BME280;65924;47.250;11.332;2023-05-16T02:26:41;94426.35;;;12.98;72.87
76990;BME280;65924;47.250;11.332;2023-05-16T02:27:20;94426.35;;;12.98;73.15
76990;BME280;65924;47.250;11.332;2023-05-16T02:27:58;94424.44;;;12.96;72.64
76990;BME280;65924;47.250;11.332;2023-05-16T02:28:37;94425.33;;;12.95;72.15
76990;BME280;65924;47.250;11.332;2023-05-16T02:29:16;94429.52;;;12.94;72.83
76990;BME280;65924;47.250;11.332;2023-05-16T02:29:54;94424.83;;;12.93;71.85
76990;BME280;65924;47.250;11.332;2023-05-16T02:30:33;94422.00;;;12.90;71.54
76990;BME280;65924;47.250;11.332;2023-05-16T02:31:12;94423.77;;;12.89;72.51
76990;BME280;65924;47.250;11.332;2023-05-16T02:31:50;94423.47;;;12.89;71.89
76990;BME280;65924;47.250;11.332;2023-05-16T02:32:28;94422.73;;;12.90;72.12
76990;BME280;65924;47.250;11.332;2023-05-16T02:33:07;94421.30;;;12.90;72.42
76990;BME280;65924;47.250;11.332;2023-05-16T02:33:46;94417.52;;;12.91;72.31
76990;BME280;65924;47.250;11.332;2023-05-16T02:34:24;94420.86;;;12.92;72.22
76990;BME280;65924;47.250;11.332;2023-05-16T02:35:03;94415.76;;;12.91;72.46
76990;BME280;65924;47.250;11.332;2023-05-16T02:35:43;94417.17;;;12.93;72.90
76990;BME280;65924;47.250;11.332;2023-05-16T02:36:21;94408.70;;;12.90;73.09
76990;BME280;65924;47.250;11.332;2023-05-16T02:37:00;94414.70;;;12.92;72.36
76990;BME280;65924;47.250;11.332;2023-05-16T02:37:39;94412.10;;;12.92;71.98
76990;BME280;65924;47.250;11.332;2023-05-16T02:38:18;94413.61;;;12.93;72.27
76990;BME280;65924;47.250;11.332;2023-05-16T02:38:58;94414.31;;;12.92;73.15
76990;BME280;65924;47.250;11.332;2023-05-16T02:39:37;94409.70;;;12.92;72.75
76990;BME280;65924;47.250;11.332;2023-05-16T02:40:16;94411.44;;;12.92;72.84
76990;BME280;65924;47.250;11.332;2023-05-16T02:40:56;94412.23;;;12.93;72.36
76990;BME280;65924;47.250;11.332;2023-05-16T02:41:34;94413.25;;;12.93;72.35
76990;BME280;65924;47.250;11.332;2023-05-16T02:42:13;94411.24;;;12.92;72.32
76990;BME280;65924;47.250;11.332;2023-05-16T02:42:52;94411.11;;;12.92;71.94
76990;BME280;65924;47.250;11.332;2023-05-16T02:43:30;94410.58;;;12.92;71.78
76990;BME280;65924;47.250;11.332;2023-05-16T02:44:09;94409.27;;;12.91;71.79
76990;BME280;65924;47.250;11.332;2023-05-16T02:44:48;94409.97;;;12.91;72.15
76990;BME280;65924;47.250;11.332;2023-05-16T02:45:26;94412.53;;;12.91;72.27
76990;BME280;65924;47.250;11.332;2023-05-16T02:46:23;94408.79;;;12.91;71.86
76990;BME280;65924;47.250;11.332;2023-05-16T02:47:02;94411.06;;;12.90;72.35
76990;BME280;65924;47.250;11.332;2023-05-16T02:47:40;94410.98;;;12.89;71.78
76990;BME280;65924;47.250;11.332;2023-05-16T02:48:19;94407.11;;;12.89;72.81
76990;BME280;65924;47.250;11.332;2023-05-16T02:48:58;94408.59;;;12.87;72.73
76990;BME280;65924;47.250;11.332;2023-05-16T02:49:37;94408.29;;;12.87;72.37
76990;BME280;65924;47.250;11.332;2023-05-16T02:50:16;94412.19;;;12.87;73.12
76990;BME280;65924;47.250;11.332;2023-05-16T02:50:54;94408.50;;;12.86;73.62
76990;BME280;65924;47.250;11.332;2023-05-16T02:51:33;94409.20;;;12.86;72.73
76990;BME280;65924;47.250;11.332;2023-05-16T02:52:11;94407.66;;;12.86;73.34
76990;BME280;65924;47.250;11.332;2023-05-16T02:52:50;94406.98;;;12.86;73.32
76990;BME280;65924;47.250;11.332;2023-05-16T02:53:29;94405.98;;;12.86;73.33
76990;BME280;65924;47.250;11.332;2023-05-16T02:54:08;94408.20;;;12.86;73.49
76990;BME280;65924;47.250;11.332;2023-05-16T02:54:47;94406.92;;;12.85;73.65
76990;BME280;65924;47.250;11.332;2023-05-16T02:55:26;94407.54;;;12.85;73.48
76990;BME280;65924;47.250;11.332;2023-05-16T02:56:05;94408.90;;;12.86;73.55
76990;BME280;65924;47.250;11.332;2023-05-16T02:56:44;94406.70;;;12.85;73.80
76990;BME280;65924;47.250;11.332;2023-05-16T02:57:23;94407.23;;;12.85;73.78
76990;BME280;65924;47.250;11.332;2023-05-16T02:58:02;94406.91;;;12.85;73.58
76990;BME280;65924;47.250;11.332;2023-05-16T02:58:41;94406.59;;;12.84;73.60
76990;BME280;65924;47.250;11.332;2023-05-16T02:59:20;94412.04;;;12.85;74.04
76990;BME280;65924;47.250;11.332;2023-05-16T03:00:00;94407.19;;;12.85;74.10
76990;BME280;65924;47.250;11.332;2023-05-16T03:00:38;94408.38;;;12.86;74.21
76990;BME280;65924;47.250;11.332;2023-05-16T03:01:17;94408.52;;;12.86;73.51
76990;BME280;65924;47.250;11.332;2023-05-16T03:01:56;94407.02;;;12.85;73.39
76990;BME280;65924;47.250;11.332;2023-05-16T03:02:34;94405.17;;;12.85;73.43
76990;BME280;65924;47.250;11.332;2023-05-16T03:03:13;94405.85;;;12.85;73.42
76990;BME280;65924;47.250;11.332;2023-05-16T03:03:52;94407.67;;;12.86;73.30
76990;BME280;65924;47.250;11.332;2023-05-16T03:04:31;94408.14;;;12.86;73.50
76990;BME280;65924;47.250;11.332;2023-05-16T03:05:10;94406.10;;;12.86;73.16
76990;BME280;65924;47.250;11.332;2023-05-16T03:05:49;94404.92;;;12.86;73.19
76990;BME280;65924;47.250;11.332;2023-05-16T03:06:28;94401.02;;;12.88;73.23
76990;BME280;65924;47.250;11.332;2023-05-16T03:07:07;94405.58;;;12.88;73.70
76990;BME280;65924;47.250;11.332;2023-05-16T03:07:46;94401.24;;;12.89;73.46
76990;BME280;65924;47.250;11.332;2023-05-16T03:08:25;94400.55;;;12.90;72.98
76990;BME280;65924;47.250;11.332;2023-05-16T03:09:03;94400.42;;;12.89;72.72
76990;BME280;65924;47.250;11.332;2023-05-16T03:09:42;94398.51;;;12.90;72.30
76990;BME280;65924;47.250;11.332;2023-05-16T03:10:20;94399.07;;;12.89;72.38
76990;BME280;65924;47.250;11.332;2023-05-16T03:10:59;94400.22;;;12.89;72.55
76990;BME280;65924;47.250;11.332;2023-05-16T03:11:38;94396.88;;;12.89;72.15
76990;BME280;65924;47.250;11.332;2023-05-16T03:12:17;94396.05;;;12.88;72.33
76990;BME280;65924;47.250;11.332;2023-05-16T03:12:55;94398.27;;;12.88;71.91
76990;BME280;65924;47.250;11.332;2023-05-16T03:13:34;94397.25;;;12.88;71.70
76990;BME280;65924;47.250;11.332;2023-05-16T03:14:13;94395.92;;;12.88;72.45
76990;BME280;65924;47.250;11.332;2023-05-16T03:14:51;94394.75;;;12.88;72.34
76990;BME280;65924;47.250;11.332;2023-05-16T03:15:33;94399.98;;;12.88;73.24
76990;BME280;65924;47.250;11.332;2023-05-16T03:16:11;94399.67;;;12.88;72.84
76990;BME280;65924;47.250;11.332;2023-05-16T03:16:50;94400.70;;;12.88;72.18
76990;BME280;65924;47.250;11.332;2023-05-16T03:17:30;94400.73;;;12.87;73.19
76990;BME280;65924;47.250;11.332;2023-05-16T03:18:09;94403.95;;;12.88;73.29
76990;BME280;65924;47.250;11.332;2023-05-16T03:18:48;94404.69;;;12.87;73.20
76990;BME280;65924;47.250;11.332;2023-05-16T03:19:27;94405.57;;;12.87;72.45
76990;BME280;65924;47.250;11.332;2023-05-16T03:20:06;94403.52;;;12.87;72.53
76990;BME280;65924;47.250;11.332;2023-05-16T03:20:46;94405.05;;;12.87;72.13
76990;BME280;65924;47.250;11.332;2023-05-16T03:21:25;94402.21;;;12.86;71.83
76990;BME280;65924;47.250;11.332;2023-05-16T03:22:03;94401.39;;;12.86;72.29
76990;BME280;65924;47.250;11.332;2023-05-16T03:22:42;94404.19;;;12.87;72.70
76990;BME280;65924;47.250;11.332;2023-05-16T03:23:22;94401.01;;;12.86;72.53
76990;BME280;65924;47.250;11.332;2023-05-16T03:24:02;94400.68;;;12.86;72.74
76990;BME280;65924;47.250;11.332;2023-05-16T03:24:42;94400.55;;;12.85;72.47
76990;BME280;65924;47.250;11.332;2023-05-16T03:25:23;94401.13;;;12.82;71.39
76990;BME280;65924;47.250;11.332;2023-05-16T03:26:01;94400.63;;;12.80;71.77
76990;BME280;65924;47.250;11.332;2023-05-16T03:26:40;94400.41;;;12.79;71.86
76990;BME280;65924;47.250;11.332;2023-05-16T03:27:19;94399.22;;;12.78;71.86
76990;BME280;65924;47.250;11.332;2023-05-16T03:27:58;94400.59;;;12.78;71.84
76990;BME280;65924;47.250;11.332;2023-05-16T03:28:36;94400.69;;;12.77;72.15
76990;BME280;65924;47.250;11.332;2023-05-16T03:29:15;94398.96;;;12.77;72.47
76990;BME280;65924;47.250;11.332;2023-05-16T03:29:53;94400.64;;;12.78;72.16
76990;BME280;65924;47.250;11.332;2023-05-16T03:30:33;94398.91;;;12.78;71.95
76990;BME280;65924;47.250;11.332;2023-05-16T03:31:11;94398.89;;;12.78;72.64
76990;BME280;65924;47.250;11.332;2023-05-16T03:31:50;94399.06;;;12.78;72.80
76990;BME280;65924;47.250;11.332;2023-05-16T03:32:29;94400.70;;;12.79;72.31
76990;BME280;65924;47.250;11.332;2023-05-16T03:33:07;94401.86;;;12.79;72.95
76990;BME280;65924;47.250;11.332;2023-05-16T03:33:46;94400.85;;;12.79;72.83
76990;BME280;65924;47.250;11.332;2023-05-16T03:34:25;94400.50;;;12.80;73.42
76990;BME280;65924;47.250;11.332;2023-05-16T03:35:03;94400.34;;;12.79;73.13
76990;BME280;65924;47.250;11.332;2023-05-16T03:35:43;94398.10;;;12.80;72.79
76990;BME280;65924;47.250;11.332;2023-05-16T03:36:22;94399.45;;;12.80;73.06
76990;BME280;65924;47.250;11.332;2023-05-16T03:37:01;94400.61;;;12.81;72.26
76990;BME280;65924;47.250;11.332;2023-05-16T03:37:40;94398.73;;;12.80;72.22
76990;BME280;65924;47.250;11.332;2023-05-16T03:38:19;94398.35;;;12.81;72.69
76990;BME280;65924;47.250;11.332;2023-05-16T03:38:57;94399.10;;;12.82;73.00
76990;BME280;65924;47.250;11.332;2023-05-16T03:39:36;94399.96;;;12.82;73.33
76990;BME280;65924;47.250;11.332;2023-05-16T03:40:17;94396.97;;;12.83;72.64
76990;BME280;65924;47.250;11.332;2023-05-16T03:40:57;94395.59;;;12.83;72.39
76990;BME280;65924;47.250;11.332;2023-05-16T03:41:36;94399.68;;;12.83;72.16